createdAt,value
2022-08-07T00:00:30.883Z,90.55
2022-08-07T00:02:59.074Z,91.57
2022-08-07T00:05:29.896Z,91.95
2022-08-07T00:07:59.639Z,91.27
2022-08-07T00:10:31.231Z,90.88
2022-08-07T00:13:09.944Z,91.30
2022-08-07T00:15:51.281Z,90.84
2022-08-07T00:18:24.610Z,90.87
2022-08-07T00:20:54.538Z,91.29
2022-08-07T00:23:22.881Z,91.74
2022-08-07T00:26:01.568Z,93.19
2022-08-07T00:28:33.998Z,93.27
2022-08-07T00:31:06.156Z,92.27
2022-08-07T00:33:41.884Z,93.03
2022-08-07T00:36:11.069Z,92.25
2022-08-07T00:38:40.289Z,91.55
2022-08-07T00:41:14.682Z,90.89
2022-08-07T00:43:59.235Z,91.33
2022-08-07T00:46:30.906Z,91.92
2022-08-07T00:49:02.842Z,92.53
2022-08-07T00:51:56.983Z,94.09
2022-08-07T00:54:19.797Z,93.26
2022-08-07T00:56:50.151Z,92.55
2022-08-07T00:59:20.251Z,93.12
2022-08-07T01:02:06.341Z,91.63
2022-08-07T01:04:43.013Z,92.02
2022-08-07T01:07:11.908Z,93.27
2022-08-07T01:10:04.862Z,92.71
2022-08-07T01:12:31.857Z,92.35
2022-08-07T01:15:03.906Z,92.15
2022-08-07T01:17:33.234Z,92.45
2022-08-07T01:20:06.535Z,94.09
2022-08-07T01:22:46.823Z,93.58
2022-08-07T01:25:53.515Z,93.08
2022-08-07T01:28:15.732Z,92.67
2022-08-07T01:30:46.291Z,92.71
2022-08-07T01:33:16.536Z,92.26
2022-08-07T01:35:53.065Z,92.72
2022-08-07T01:38:29.271Z,93.51
2022-08-07T01:41:03.793Z,92.92
2022-08-07T01:43:34.747Z,92.67
2022-08-07T01:46:12.120Z,92.69
2022-08-07T01:48:46.824Z,92.89
2022-08-07T01:52:01.873Z,94.15
2022-08-07T01:54:22.035Z,94.62
2022-08-07T01:57:08.305Z,94.61
2022-08-07T01:59:45.241Z,96.18
2022-08-07T02:02:32.636Z,94.56
2022-08-07T02:05:05.357Z,93.99
2022-08-07T02:07:49.882Z,93.85
2022-08-07T02:10:28.954Z,94.49
2022-08-07T02:13:01.255Z,93.81
2022-08-07T02:15:38.695Z,94.47
2022-08-07T02:18:11.096Z,94.25
2022-08-07T02:20:42.469Z,94.22
2022-08-07T02:23:23.828Z,94.51
2022-08-07T02:26:26.593Z,94.18
2022-08-07T02:28:43.122Z,94.63
2022-08-07T02:31:28.104Z,94.97
2022-08-07T02:34:03.931Z,94.76
2022-08-07T02:36:45.246Z,95.21
2022-08-07T02:39:42.401Z,94.29
2022-08-07T02:42:14.835Z,94.74
2022-08-07T02:44:48.251Z,95.14
2022-08-07T02:47:23.486Z,95.06
2022-08-07T02:49:59.771Z,95.08
2022-08-07T02:52:37.282Z,95.96
2022-08-07T02:55:27.905Z,96.13
2022-08-07T02:58:04.056Z,96.82
2022-08-07T03:00:35.418Z,96.09
2022-08-07T03:03:07.151Z,95.97
2022-08-07T03:05:45.681Z,96.40
2022-08-07T03:08:17.864Z,96.39
2022-08-07T03:10:57.030Z,95.52
2022-08-07T03:13:39.205Z,95.82
2022-08-07T03:16:18.562Z,95.98
2022-08-07T03:18:53.286Z,95.37
2022-08-07T03:21:24.479Z,95.70
2022-08-07T03:24:20.785Z,95.73
2022-08-07T03:26:51.137Z,95.37
2022-08-07T03:29:31.010Z,95.86
2022-08-07T03:32:03.859Z,95.53
2022-08-07T03:34:34.005Z,95.54
2022-08-07T03:37:11.999Z,95.37
2022-08-07T03:39:59.266Z,95.99
2022-08-07T03:42:29.464Z,95.36
2022-08-07T03:44:59.032Z,95.79
2022-08-07T03:47:47.759Z,95.88
2022-08-07T03:50:23.274Z,96.17
2022-08-07T03:52:54.630Z,97.26
2022-08-07T03:55:23.614Z,96.72
2022-08-07T03:59:07.272Z,96.52
2022-08-07T04:01:07.579Z,96.83
2022-08-07T04:03:54.052Z,96.44
2022-08-07T04:06:37.281Z,96.95
2022-08-07T04:09:15.674Z,96.17
2022-08-07T04:12:21.487Z,95.52
2022-08-07T04:14:43.684Z,94.93
2022-08-07T04:17:20.902Z,95.71
2022-08-07T04:20:06.529Z,96.79
2022-08-07T04:22:38.173Z,97.61
2022-08-07T04:25:08.825Z,96.83
2022-08-07T04:27:44.409Z,96.90
2022-08-07T04:30:35.920Z,97.20
2022-08-07T04:33:15.617Z,96.71
2022-08-07T04:35:50.255Z,95.72
2022-08-07T04:38:21.671Z,95.66
2022-08-07T04:40:51.853Z,94.78
2022-08-07T04:44:11.264Z,94.34
2022-08-07T04:46:34.340Z,95.45
2022-08-07T04:49:18.273Z,94.92
2022-08-07T04:52:13.580Z,93.53
2022-08-07T04:54:50.386Z,94.00
2022-08-07T04:58:12.099Z,94.07
2022-08-07T05:00:30.395Z,94.32
2022-08-07T05:03:31.258Z,93.92
2022-08-07T05:06:19.709Z,95.60
2022-08-07T05:09:01.494Z,96.07
2022-08-07T05:11:57.364Z,96.34
2022-08-07T05:14:52.324Z,96.09
2022-08-07T05:17:53.055Z,96.18
2022-08-07T05:20:12.889Z,96.13
2022-08-07T05:22:44.639Z,96.25
2022-08-07T05:25:25.650Z,96.24
2022-08-07T05:28:20.120Z,95.95
2022-08-07T05:30:55.108Z,95.47
2022-08-07T05:33:26.262Z,95.21
2022-08-07T05:35:56.346Z,95.04
2022-08-07T05:38:58.326Z,95.02
2022-08-07T05:41:18.473Z,94.80
2022-08-07T05:44:08.073Z,94.32
2022-08-07T05:46:43.354Z,94.10
2022-08-07T05:49:13.319Z,93.99
2022-08-07T05:51:47.307Z,94.03
2022-08-07T05:54:30.927Z,94.48
2022-08-07T05:57:10.788Z,93.69
2022-08-07T05:59:56.132Z,93.57
2022-08-07T06:02:31.065Z,93.56
2022-08-07T06:05:05.917Z,92.86
2022-08-07T06:08:12.339Z,91.94
2022-08-07T06:10:26.520Z,91.78
2022-08-07T06:12:55.033Z,90.98
2022-08-07T06:15:42.469Z,90.22
2022-08-07T06:18:15.166Z,90.25
2022-08-07T06:20:50.373Z,89.93
2022-08-07T06:24:37.673Z,90.03
2022-08-07T06:26:27.422Z,89.46
2022-08-07T06:29:01.246Z,90.09
2022-08-07T06:31:46.664Z,89.63
2022-08-07T06:34:19.703Z,88.60
2022-08-07T06:36:51.849Z,87.75
2022-08-07T06:40:16.506Z,87.63
2022-08-07T06:42:20.016Z,86.21
2022-08-07T06:45:18.346Z,85.78
2022-08-07T06:47:58.539Z,87.42
2022-08-07T06:50:36.044Z,85.40
2022-08-07T06:53:18.778Z,85.65
2022-08-07T06:56:01.362Z,85.96
2022-08-07T06:58:35.259Z,86.73
2022-08-07T07:01:11.153Z,85.53
2022-08-07T07:03:49.967Z,84.84
2022-08-07T07:06:26.607Z,84.73
2022-08-07T07:08:56.862Z,82.36
2022-08-07T07:12:08.357Z,83.67
2022-08-07T07:14:17.800Z,82.42
2022-08-07T07:16:51.178Z,81.82
2022-08-07T07:19:56.618Z,83.36
2022-08-07T07:22:36.435Z,82.30
2022-08-07T07:26:31.006Z,81.21
2022-08-07T07:28:03.293Z,83.25
2022-08-07T07:30:40.320Z,82.30
2022-08-07T07:33:12.039Z,81.72
2022-08-07T07:36:03.811Z,80.19
2022-08-07T07:38:35.006Z,81.29
2022-08-07T07:41:09.223Z,79.33
2022-08-07T07:44:13.885Z,79.67
2022-08-07T07:46:36.990Z,80.47
2022-08-07T07:50:33.222Z,83.68
2022-08-07T07:52:13.886Z,80.59
2022-08-07T07:54:51.102Z,79.07
2022-08-07T07:57:43.893Z,78.50
2022-08-07T08:00:28.990Z,79.06
2022-08-07T08:03:06.777Z,77.70
2022-08-07T08:05:51.090Z,77.88
2022-08-07T08:08:34.940Z,76.67
2022-08-07T08:11:13.696Z,78.78
2022-08-07T08:13:54.996Z,78.43
2022-08-07T08:16:32.434Z,76.57
2022-08-07T08:19:17.376Z,75.84
2022-08-07T08:22:08.134Z,74.38
2022-08-07T08:25:18.220Z,76.19
2022-08-07T08:27:56.276Z,74.03
2022-08-07T08:30:28.856Z,72.46
2022-08-07T08:33:00.590Z,72.02
2022-08-07T08:35:39.524Z,71.78
2022-08-07T08:38:19.762Z,72.87
2022-08-07T08:40:57.047Z,71.38
2022-08-07T08:43:42.914Z,71.09
2022-08-07T08:46:34.173Z,69.24
2022-08-07T08:49:11.635Z,67.35
2022-08-07T08:52:13.869Z,66.01
2022-08-07T08:54:49.156Z,64.67
2022-08-07T08:57:27.302Z,63.79
2022-08-07T09:00:04.512Z,66.05
2022-08-07T09:02:40.491Z,67.05
2022-08-07T09:05:32.319Z,63.69
2022-08-07T09:08:28.226Z,64.42
2022-08-07T09:11:08.245Z,62.91
2022-08-07T09:13:38.897Z,63.11
2022-08-07T09:16:20.266Z,62.64
2022-08-07T09:19:52.339Z,61.55
2022-08-07T09:24:28.666Z,62.09
2022-08-07T09:25:14.780Z,61.19
2022-08-07T09:27:59.740Z,59.92
2022-08-07T09:30:36.100Z,57.78
2022-08-07T09:33:41.334Z,57.92
2022-08-07T09:36:11.562Z,59.17
2022-08-07T09:38:53.433Z,58.97
2022-08-07T09:41:36.152Z,59.66
2022-08-07T09:44:32.991Z,56.67
2022-08-07T09:47:50.720Z,58.74
2022-08-07T09:50:23.853Z,58.14
2022-08-07T09:53:00.928Z,57.16
2022-08-07T09:56:03.400Z,55.31
2022-08-07T09:58:53.892Z,57.50
2022-08-07T10:01:52.088Z,55.99
2022-08-07T10:04:54.881Z,55.87
2022-08-07T10:07:52.595Z,55.21
2022-08-07T10:11:00.200Z,56.03
2022-08-07T10:14:00.458Z,55.11
2022-08-07T10:16:48.227Z,52.62
2022-08-07T10:19:31.012Z,54.88
2022-08-07T10:22:15.573Z,52.80
2022-08-07T10:24:57.433Z,55.72
2022-08-07T10:27:46.204Z,55.77
2022-08-07T10:30:19.032Z,54.92
2022-08-07T10:33:15.540Z,57.85
2022-08-07T10:36:05.515Z,57.51
2022-08-07T10:38:51.412Z,55.65
2022-08-07T10:41:52.413Z,54.84
2022-08-07T10:44:37.375Z,56.04
2022-08-07T10:47:31.112Z,54.86
2022-08-07T10:50:15.263Z,55.21
2022-08-07T10:52:53.373Z,56.39
2022-08-07T10:55:37.179Z,54.78
2022-08-07T10:58:36.493Z,54.31
2022-08-07T11:01:51.717Z,52.44
2022-08-07T11:04:47.036Z,53.04
2022-08-07T11:07:58.899Z,52.40
2022-08-07T11:10:20.774Z,53.72
2022-08-07T11:13:01.946Z,52.68
2022-08-07T11:15:36.134Z,51.80
2022-08-07T11:18:12.485Z,54.31
2022-08-07T11:20:49.655Z,52.37
2022-08-07T11:23:30.523Z,53.26
2022-08-07T11:26:13.349Z,53.14
2022-08-07T11:28:53.355Z,51.71
2022-08-07T11:31:35.107Z,51.45
2022-08-07T11:34:10.937Z,50.82
2022-08-07T11:36:44.903Z,49.66
2022-08-07T11:39:59.240Z,51.09
2022-08-07T11:42:29.713Z,48.89
2022-08-07T11:45:07.804Z,51.07
2022-08-07T11:48:18.230Z,49.23
2022-08-07T11:51:41.955Z,51.62
2022-08-07T11:54:17.119Z,48.19
2022-08-07T11:57:03.241Z,48.51
2022-08-07T12:00:10.939Z,49.75
2022-08-07T12:03:02.187Z,50.86
2022-08-07T12:05:48.993Z,47.96
2022-08-07T12:08:31.371Z,47.90
2022-08-07T12:11:20.094Z,46.94
2022-08-07T12:13:58.104Z,48.73
2022-08-07T12:16:30.511Z,49.60
2022-08-07T12:19:21.475Z,51.41
2022-08-07T12:22:38.505Z,51.81
2022-08-07T12:26:21.635Z,49.08
2022-08-07T12:28:17.149Z,48.27
2022-08-07T12:31:09.290Z,46.81
2022-08-07T12:33:55.996Z,45.67
2022-08-07T12:36:32.918Z,46.60
2022-08-07T12:39:38.848Z,43.29
2022-08-07T12:41:54.110Z,42.84
2022-08-07T12:44:25.422Z,42.29
2022-08-07T12:47:09.312Z,43.58
2022-08-07T12:49:51.603Z,43.99
2022-08-07T12:52:33.839Z,41.36
2022-08-07T12:55:09.438Z,42.58
2022-08-07T12:58:01.086Z,43.53
2022-08-07T13:00:41.535Z,40.13
2022-08-07T13:03:59.165Z,40.81
2022-08-07T13:07:02.289Z,40.85
2022-08-07T13:10:37.696Z,39.28
2022-08-07T13:12:35.297Z,37.34
2022-08-07T13:15:14.216Z,35.72
2022-08-07T13:17:57.821Z,37.82
2022-08-07T13:20:41.150Z,38.36
2022-08-07T13:24:00.689Z,38.88
2022-08-07T13:26:15.712Z,38.83
2022-08-07T13:28:58.330Z,35.80
2022-08-07T13:31:46.124Z,36.67
2022-08-07T13:34:33.140Z,35.45
2022-08-07T13:37:19.670Z,34.65
2022-08-07T13:40:36.155Z,34.15
2022-08-07T13:42:49.676Z,37.74
2022-08-07T13:46:10.764Z,35.83
2022-08-07T13:48:27.723Z,34.08
2022-08-07T13:51:27.675Z,34.97
2022-08-07T13:54:00.307Z,35.06
2022-08-07T13:56:35.357Z,33.23
2022-08-07T13:59:13.550Z,32.22
2022-08-07T14:01:51.166Z,34.85
2022-08-07T14:04:35.999Z,34.37
2022-08-07T14:07:09.782Z,33.97
2022-08-07T14:10:17.589Z,33.56
2022-08-07T14:12:53.948Z,33.05
2022-08-07T14:15:31.818Z,35.10
2022-08-07T14:18:23.754Z,35.97
2022-08-07T14:21:07.906Z,34.36
2022-08-07T14:24:00.261Z,33.13
2022-08-07T14:26:33.177Z,36.43
2022-08-07T14:29:08.768Z,35.64
2022-08-07T14:31:57.985Z,36.06
2022-08-07T14:34:30.687Z,37.36
2022-08-07T14:37:02.026Z,32.95
2022-08-07T14:40:17.343Z,33.68
2022-08-07T14:42:31.296Z,33.59
2022-08-07T14:45:22.237Z,34.29
2022-08-07T14:47:51.289Z,35.38
2022-08-07T14:50:28.834Z,33.52
2022-08-07T14:55:56.191Z,32.41
2022-08-07T14:58:34.887Z,32.41
2022-08-07T15:01:21.468Z,32.13
2022-08-07T15:06:40.059Z,33.30
2022-08-07T15:09:57.798Z,34.33
2022-08-07T15:12:10.527Z,32.81
2022-08-07T15:15:00.394Z,33.00
2022-08-07T15:17:55.571Z,31.79
2022-08-07T15:20:33.320Z,32.97
2022-08-07T15:25:55.981Z,34.38
2022-08-07T15:32:01.060Z,34.57
2022-08-07T15:37:06.875Z,34.02
2022-08-07T15:39:57.899Z,33.59
2022-08-07T15:48:34.475Z,34.48
2022-08-07T15:51:11.963Z,31.91
2022-08-07T15:53:53.078Z,32.21
2022-08-07T15:56:25.817Z,33.25
2022-08-07T15:58:57.953Z,34.20
2022-08-07T16:01:38.738Z,35.06
2022-08-07T16:04:15.341Z,33.61
2022-08-07T16:06:50.340Z,33.14
2022-08-07T16:09:23.312Z,32.17
2022-08-07T16:12:28.578Z,31.52
2022-08-07T16:15:54.580Z,33.15
2022-08-07T16:18:49.370Z,34.17
2022-08-07T16:21:43.945Z,34.39
2022-08-07T16:24:33.619Z,34.20
2022-08-07T16:27:18.287Z,33.22
2022-08-07T16:30:30.547Z,33.22
2022-08-07T16:32:59.908Z,32.91
2022-08-07T16:35:52.108Z,31.67
2022-08-07T16:38:58.575Z,33.35
2022-08-07T16:41:41.450Z,35.23
2022-08-07T16:45:24.620Z,35.94
2022-08-07T16:48:04.011Z,36.33
2022-08-07T16:51:13.383Z,34.31
2022-08-07T16:54:12.252Z,35.74
2022-08-07T16:57:03.202Z,39.27
2022-08-07T16:59:46.344Z,36.82
2022-08-07T17:02:52.384Z,36.35
2022-08-07T17:06:19.301Z,37.68
2022-08-07T17:09:08.886Z,40.98
2022-08-07T17:12:03.853Z,44.47
2022-08-07T17:14:33.388Z,43.91
2022-08-07T17:17:06.127Z,44.93
2022-08-07T17:20:03.154Z,46.17
2022-08-07T17:22:46.832Z,45.64
2022-08-07T17:25:19.442Z,45.42
2022-08-07T17:28:06.597Z,45.89
2022-08-07T17:30:57.755Z,46.16
2022-08-07T17:34:09.396Z,46.02
2022-08-07T17:36:26.082Z,46.90
2022-08-07T17:39:02.068Z,47.51
2022-08-07T17:42:03.097Z,47.70
2022-08-07T17:44:49.988Z,47.93
2022-08-07T17:47:38.740Z,48.23
2022-08-07T17:50:30.314Z,48.01
2022-08-07T17:53:06.096Z,49.11
2022-08-07T17:56:00.817Z,48.30
2022-08-07T17:58:46.135Z,48.94
2022-08-07T18:01:34.812Z,48.73
2022-08-07T18:04:19.130Z,49.02
2022-08-07T18:07:18.994Z,49.10
2022-08-07T18:10:07.524Z,50.45
2022-08-07T18:12:54.664Z,50.20
2022-08-07T18:15:32.763Z,51.72
2022-08-07T18:18:44.994Z,51.55
2022-08-07T18:21:28.187Z,51.14
2022-08-07T18:24:06.982Z,51.32
2022-08-07T18:27:12.658Z,52.93
2022-08-07T18:30:08.032Z,53.40
2022-08-07T18:33:38.858Z,52.89
2022-08-07T18:36:40.885Z,53.73
2022-08-07T18:40:07.083Z,53.79
2022-08-07T18:42:18.838Z,54.34
2022-08-07T18:45:39.816Z,54.39
2022-08-07T18:48:00.590Z,54.57
2022-08-07T18:50:52.753Z,54.94
2022-08-07T18:53:39.380Z,55.33
2022-08-07T18:56:17.430Z,55.38
2022-08-07T18:59:47.389Z,56.01
2022-08-07T19:02:34.530Z,56.36
2022-08-07T19:05:16.268Z,56.36
2022-08-07T19:07:58.622Z,56.24
2022-08-07T19:10:49.567Z,56.86
2022-08-07T19:13:27.547Z,57.35
2022-08-07T19:17:01.473Z,57.41
2022-08-07T19:18:58.156Z,57.94
2022-08-07T19:21:44.299Z,58.01
2022-08-07T19:24:30.724Z,58.53
2022-08-07T19:28:58.401Z,60.35
2022-08-07T19:31:00.912Z,61.92
2022-08-07T19:32:51.000Z,63.39
2022-08-07T19:35:24.538Z,64.09
2022-08-07T19:37:58.201Z,65.10
2022-08-07T19:40:34.539Z,66.40
2022-08-07T19:43:21.267Z,67.57
2022-08-07T19:46:04.699Z,68.41
2022-08-07T19:48:42.177Z,68.26
2022-08-07T19:51:19.598Z,69.13
2022-08-07T19:54:31.148Z,68.59
2022-08-07T19:57:51.553Z,68.85
2022-08-07T19:59:41.004Z,70.92
2022-08-07T20:02:19.127Z,72.07
2022-08-07T20:04:50.510Z,71.91
2022-08-07T20:07:46.591Z,71.60
2022-08-07T20:10:37.169Z,72.95
2022-08-07T20:13:22.904Z,72.48
2022-08-07T20:15:57.567Z,73.19
2022-08-07T20:18:33.823Z,73.65
2022-08-07T20:21:14.874Z,73.92
2022-08-07T20:23:58.072Z,74.23
2022-08-07T20:26:32.408Z,74.31
2022-08-07T20:29:46.833Z,75.23
2022-08-07T20:32:03.911Z,75.94
2022-08-07T20:34:50.373Z,76.69
2022-08-07T20:37:33.922Z,75.91
2022-08-07T20:40:32.142Z,74.82
2022-08-07T20:42:59.140Z,75.05
2022-08-07T20:45:33.722Z,75.07
2022-08-07T20:48:29.787Z,75.52
2022-08-07T20:51:01.199Z,76.69
2022-08-07T20:54:03.056Z,76.43
2022-08-07T20:56:20.231Z,75.84
2022-08-07T20:58:58.620Z,75.92
2022-08-07T21:01:45.684Z,76.36
2022-08-07T21:04:22.519Z,78.33
2022-08-07T21:06:56.655Z,77.37
2022-08-07T21:09:35.353Z,76.93
2022-08-07T21:12:28.935Z,76.62
2022-08-07T21:15:01.326Z,77.57
2022-08-07T21:18:04.019Z,77.75
2022-08-07T21:20:30.144Z,79.12
2022-08-07T21:23:08.994Z,78.98
2022-08-07T21:25:56.826Z,77.95
2022-08-07T21:28:49.035Z,78.02
2022-08-07T21:31:49.207Z,77.78
2022-08-07T21:34:26.469Z,78.26
2022-08-07T21:37:03.630Z,79.25
2022-08-07T21:39:48.543Z,78.50
2022-08-07T21:42:46.641Z,78.66
2022-08-07T21:46:07.677Z,78.77
2022-08-07T21:48:28.214Z,79.90
2022-08-07T21:51:08.371Z,79.49
2022-08-07T21:53:53.240Z,80.87
2022-08-07T21:56:36.512Z,80.66
2022-08-07T21:59:18.512Z,80.65
2022-08-07T22:02:10.849Z,80.83
2022-08-07T22:04:52.515Z,79.98
2022-08-07T22:07:35.671Z,80.86
2022-08-07T22:10:20.437Z,80.94
2022-08-07T22:12:53.712Z,80.14
2022-08-07T22:16:40.274Z,79.95
2022-08-07T22:18:21.617Z,80.62
2022-08-07T22:20:53.955Z,80.86
2022-08-07T22:23:27.710Z,82.36
2022-08-07T22:26:06.213Z,81.79
2022-08-07T22:28:41.875Z,82.71
2022-08-07T22:31:45.351Z,82.20
2022-08-07T22:34:16.770Z,81.73
2022-08-07T22:36:54.341Z,82.23
2022-08-07T22:39:52.961Z,81.38
2022-08-07T22:42:29.549Z,81.87
2022-08-07T22:45:03.787Z,81.61
2022-08-07T22:48:01.943Z,81.60
2022-08-07T22:50:46.626Z,82.07
2022-08-07T22:54:08.271Z,82.45
2022-08-07T22:56:28.956Z,83.31
2022-08-07T22:59:32.694Z,83.32
2022-08-07T23:02:10.517Z,82.80
2022-08-07T23:06:05.021Z,82.56
2022-08-07T23:07:54.759Z,81.85
2022-08-07T23:10:42.107Z,82.46
2022-08-07T23:13:48.590Z,83.62
2022-08-07T23:16:54.291Z,82.60
2022-08-07T23:19:58.522Z,82.20
2022-08-07T23:22:40.329Z,83.33
2022-08-07T23:25:28.203Z,82.49
2022-08-07T23:28:44.284Z,82.50
2022-08-07T23:32:48.581Z,84.22
2022-08-07T23:34:38.576Z,84.83
2022-08-07T23:38:01.279Z,84.72
2022-08-07T23:40:39.554Z,84.86
2022-08-07T23:43:40.832Z,85.42
2022-08-07T23:46:27.164Z,84.21
2022-08-07T23:49:42.201Z,85.17
2022-08-07T23:53:00.475Z,85.38
2022-08-07T23:55:53.237Z,85.57
2022-08-07T23:58:21.408Z,85.42
